createdAt,value
2022-09-23T00:00:54.052Z,45.90
2022-09-23T00:03:41.992Z,46.62
2022-09-23T00:15:03.173Z,46.18
2022-09-23T00:17:36.142Z,45.97
2022-09-23T00:20:14.513Z,46.39
2022-09-23T00:23:15.521Z,45.31
2022-09-23T00:27:07.952Z,46.44
2022-09-23T00:29:44.400Z,45.84
2022-09-23T00:32:19.889Z,45.88
2022-09-23T00:34:57.826Z,46.36
2022-09-23T00:37:28.417Z,47.59
2022-09-23T00:40:03.854Z,46.30
2022-09-23T00:42:49.581Z,46.22
2022-09-23T00:46:06.658Z,46.54
2022-09-23T00:48:43.887Z,47.36
2022-09-23T00:52:13.563Z,46.28
2022-09-23T00:55:40.669Z,47.17
2022-09-23T01:23:29.199Z,47.04
2022-09-23T01:31:14.742Z,48.11
2022-09-23T01:54:31.915Z,48.87
2022-09-23T01:57:41.025Z,48.74
2022-09-23T02:03:45.261Z,49.18
2022-09-23T02:07:24.393Z,48.81
2022-09-23T02:18:59.793Z,48.85
2022-09-23T02:23:26.877Z,48.99
2022-09-23T02:34:45.691Z,49.08
2022-09-23T02:37:31.384Z,48.94
2022-09-23T02:40:11.437Z,49.14
2022-09-23T02:42:52.377Z,50.09
2022-09-23T02:45:22.670Z,49.24
2022-09-23T02:48:00.924Z,49.40
2022-09-23T02:50:31.502Z,50.29
2022-09-23T02:53:04.480Z,50.61
2022-09-23T02:55:35.064Z,50.67
2022-09-23T02:58:24.370Z,49.95
2022-09-23T03:01:11.536Z,49.28
2022-09-23T03:03:57.330Z,49.94
2022-09-23T03:06:33.457Z,49.85
2022-09-23T03:09:13.550Z,50.33
2022-09-23T03:11:51.566Z,50.40
2022-09-23T03:14:36.500Z,50.27
2022-09-23T03:17:25.460Z,50.27
2022-09-23T03:20:05.653Z,50.30
2022-09-23T03:22:51.448Z,50.17
2022-09-23T03:25:29.205Z,50.25
2022-09-23T03:28:37.262Z,50.52
2022-09-23T03:31:25.252Z,50.35
2022-09-23T03:34:01.003Z,50.33
2022-09-23T03:36:48.366Z,50.17
2022-09-23T03:39:31.228Z,50.25
2022-09-23T03:42:06.209Z,50.45
2022-09-23T03:44:46.008Z,50.05
2022-09-23T03:47:19.557Z,50.26
2022-09-23T03:49:52.230Z,50.41
2022-09-23T03:52:24.554Z,50.33
2022-09-23T03:54:56.187Z,50.14
2022-09-23T03:57:28.191Z,50.05
2022-09-23T03:59:59.470Z,50.46
2022-09-23T04:02:35.299Z,50.47
2022-09-23T04:05:06.617Z,50.52
2022-09-23T04:07:37.136Z,50.47
2022-09-23T04:10:10.211Z,50.39
2022-09-23T04:12:41.092Z,50.22
2022-09-23T04:15:12.698Z,50.33
2022-09-23T04:17:45.636Z,49.92
2022-09-23T04:20:19.364Z,49.95
2022-09-23T04:22:49.690Z,50.38
2022-09-23T04:25:20.858Z,50.41
2022-09-23T04:27:51.490Z,50.54
2022-09-23T04:30:22.498Z,50.37
2022-09-23T04:32:58.607Z,50.42
2022-09-23T04:35:30.538Z,50.50
2022-09-23T04:38:03.215Z,50.57
2022-09-23T04:40:35.473Z,50.30
2022-09-23T04:43:07.186Z,50.23
2022-09-23T04:45:41.908Z,50.54
2022-09-23T04:48:15.662Z,50.33
2022-09-23T04:50:46.387Z,50.43
2022-09-23T04:53:17.337Z,50.60
2022-09-23T04:55:48.412Z,50.72
2022-09-23T04:58:18.778Z,50.84
2022-09-23T05:00:49.462Z,50.93
2022-09-23T05:03:24.001Z,51.31
2022-09-23T05:05:55.323Z,52.03
2022-09-23T05:08:25.958Z,52.83
2022-09-23T05:11:00.687Z,52.82
2022-09-23T05:13:31.347Z,52.64
2022-09-23T05:16:02.941Z,52.58
2022-09-23T05:18:39.335Z,52.53
2022-09-23T05:21:10.870Z,52.73
2022-09-23T05:23:42.050Z,52.86
2022-09-23T05:26:16.273Z,53.06
2022-09-23T05:28:49.857Z,53.07
2022-09-23T05:35:35.324Z,53.70
2022-09-23T05:41:36.698Z,54.37
2022-09-23T05:44:16.926Z,54.08
2022-09-23T05:46:59.424Z,54.09
2022-09-23T05:49:58.192Z,54.01
2022-09-23T05:53:24.443Z,54.42
2022-09-23T05:56:23.405Z,54.69
2022-09-23T05:59:02.510Z,54.82
2022-09-23T06:01:35.676Z,54.66
2022-09-23T06:04:12.448Z,54.75
2022-09-23T06:07:03.800Z,55.17
2022-09-23T06:09:45.517Z,54.46
2022-09-23T06:12:39.161Z,54.28
2022-09-23T06:15:10.778Z,54.46
2022-09-23T06:17:40.983Z,53.83
2022-09-23T06:20:11.920Z,54.35
2022-09-23T06:22:42.059Z,53.83
2022-09-23T06:25:14.967Z,53.97
2022-09-23T06:27:45.844Z,54.23
2022-09-23T06:30:17.414Z,53.75
2022-09-23T06:36:43.361Z,53.95
2022-09-23T06:39:15.165Z,54.41
2022-09-23T06:41:48.186Z,54.46
2022-09-23T06:44:20.508Z,54.92
2022-09-23T06:47:10.891Z,54.98
2022-09-23T06:50:07.481Z,55.28
2022-09-23T06:52:59.493Z,55.61
2022-09-23T06:55:30.727Z,55.34
2022-09-23T06:58:30.138Z,55.87
2022-09-23T07:01:25.963Z,56.85
2022-09-23T07:03:58.624Z,56.06
2022-09-23T07:06:29.511Z,56.67
2022-09-23T07:12:26.280Z,56.37
2022-09-23T07:15:11.173Z,56.04
2022-09-23T07:18:02.892Z,56.18
2022-09-23T07:20:37.974Z,56.00
2022-09-23T07:23:10.593Z,57.04
2022-09-23T07:25:42.442Z,56.62
2022-09-23T07:28:15.223Z,56.89
2022-09-23T07:30:58.391Z,56.89
2022-09-23T07:33:33.198Z,57.52
2022-09-23T07:36:08.277Z,57.84
2022-09-23T07:38:44.239Z,58.35
2022-09-23T07:41:17.951Z,58.68
2022-09-23T07:43:55.572Z,58.51
2022-09-23T07:46:30.788Z,59.06
2022-09-23T07:49:04.388Z,58.19
2022-09-23T07:51:37.005Z,58.40
2022-09-23T07:54:10.166Z,58.14
2022-09-23T07:56:41.259Z,58.09
2022-09-23T07:59:15.431Z,57.99
2022-09-23T08:01:50.801Z,57.64
2022-09-23T08:04:22.506Z,56.55
2022-09-23T08:06:55.362Z,56.81
2022-09-23T08:09:27.383Z,56.78
2022-09-23T08:11:58.288Z,56.43
2022-09-23T08:14:28.913Z,56.69
2022-09-23T08:17:01.757Z,56.71
2022-09-23T08:19:31.627Z,56.21
2022-09-23T08:22:02.054Z,55.68
2022-09-23T08:24:32.311Z,55.45
2022-09-23T08:27:02.559Z,54.54
2022-09-23T08:29:32.499Z,53.88
2022-09-23T08:32:05.228Z,53.75
2022-09-23T08:34:35.748Z,53.47
2022-09-23T08:37:05.726Z,53.10
2022-09-23T08:39:35.880Z,52.27
2022-09-23T08:42:15.442Z,53.27
2022-09-23T08:44:50.895Z,51.89
2022-09-23T08:47:28.002Z,51.55
2022-09-23T08:50:05.566Z,50.61
2022-09-23T08:52:39.493Z,49.34
2022-09-23T08:55:15.288Z,50.11
2022-09-23T08:58:08.175Z,51.58
2022-09-23T09:00:47.542Z,50.22
2022-09-23T09:03:26.339Z,49.08
2022-09-23T09:05:57.492Z,49.02
2022-09-23T09:08:31.577Z,49.05
2022-09-23T09:11:02.522Z,48.74
2022-09-23T09:13:36.229Z,48.26
2022-09-23T09:16:42.115Z,47.97
2022-09-23T09:19:22.828Z,46.55
2022-09-23T09:21:56.638Z,46.82
2022-09-23T09:24:35.349Z,46.68
2022-09-23T09:27:55.693Z,46.08
2022-09-23T09:30:48.220Z,44.95
2022-09-23T09:33:21.872Z,45.02
2022-09-23T09:36:09.071Z,44.47
2022-09-23T09:38:39.896Z,44.22
2022-09-23T09:41:17.943Z,43.44
2022-09-23T09:43:56.365Z,42.28
2022-09-23T09:46:43.101Z,42.23
2022-09-23T09:49:23.355Z,40.71
2022-09-23T09:52:15.479Z,41.49
2022-09-23T09:54:45.770Z,40.80
2022-09-23T09:57:26.387Z,40.53
2022-09-23T09:59:56.987Z,40.08
2022-09-23T10:02:32.630Z,41.40
2022-09-23T10:05:05.444Z,41.52
2022-09-23T10:07:38.103Z,38.36
2022-09-23T10:10:32.549Z,38.79
2022-09-23T10:13:17.998Z,38.44
2022-09-23T10:15:48.408Z,36.58
2022-09-23T10:18:22.216Z,36.05
2022-09-23T10:20:52.550Z,34.72
2022-09-23T10:23:33.486Z,36.62
2022-09-23T10:26:06.321Z,35.94
2022-09-23T10:28:44.526Z,33.33
2022-09-23T10:31:16.838Z,32.43
2022-09-23T10:34:14.911Z,31.25
2022-09-23T10:37:27.119Z,31.86
2022-09-23T10:40:12.933Z,31.79
2022-09-23T10:43:15.843Z,31.87
2022-09-23T10:46:03.752Z,30.93
2022-09-23T10:48:45.777Z,31.75
2022-09-23T10:51:26.073Z,30.28
2022-09-23T10:54:05.038Z,31.19
2022-09-23T10:56:42.760Z,30.63
2022-09-23T10:59:33.112Z,32.07
2022-09-23T11:02:18.578Z,30.54
2022-09-23T11:05:28.304Z,30.88
2022-09-23T11:08:12.569Z,30.55
2022-09-23T11:11:04.147Z,30.18
2022-09-23T11:13:54.691Z,29.81
2022-09-23T11:16:39.213Z,29.73
2022-09-23T11:19:34.220Z,29.55
2022-09-23T11:22:24.752Z,28.91
2022-09-23T11:25:23.739Z,28.50
2022-09-23T11:28:25.527Z,28.62
2022-09-23T11:31:07.032Z,28.85
2022-09-23T11:33:47.833Z,27.94
2022-09-23T11:36:26.825Z,28.31
2022-09-23T11:38:59.832Z,27.76
2022-09-23T11:41:34.259Z,28.02
2022-09-23T11:44:10.320Z,27.50
2022-09-23T11:46:48.258Z,26.93
2022-09-23T11:49:21.817Z,27.15
2022-09-23T11:52:05.260Z,26.99
2022-09-23T11:54:43.032Z,26.79
2022-09-23T11:57:21.436Z,25.95
2022-09-23T11:59:55.851Z,25.61
2022-09-23T12:06:12.667Z,25.53
2022-09-23T12:08:45.180Z,24.74
2022-09-23T12:11:26.981Z,24.31
2022-09-23T12:14:14.412Z,24.80
2022-09-23T12:17:44.001Z,24.81
2022-09-23T12:25:45.956Z,22.39
2022-09-23T12:28:21.389Z,22.76
2022-09-23T12:35:02.996Z,22.82
2022-09-23T12:37:43.604Z,21.65
2022-09-23T12:40:44.058Z,20.50
2022-09-23T12:43:21.471Z,20.88
2022-09-23T12:45:58.108Z,20.64
2022-09-23T12:48:47.043Z,21.00
2022-09-23T12:51:27.257Z,20.78
2022-09-23T12:54:19.818Z,21.10
2022-09-23T12:57:12.282Z,20.40
2022-09-23T13:04:11.229Z,18.79
2022-09-23T13:06:45.993Z,18.85
2022-09-23T13:09:20.596Z,19.40
2022-09-23T13:11:52.701Z,19.47
2022-09-23T13:14:27.892Z,19.18
2022-09-23T13:17:02.965Z,19.66
2022-09-23T13:20:09.423Z,19.67
2022-09-23T13:23:00.450Z,19.81
2022-09-23T13:28:36.922Z,18.98
2022-09-23T13:31:18.223Z,18.51
2022-09-23T13:33:51.658Z,18.83
2022-09-23T13:36:22.865Z,18.12
2022-09-23T13:38:53.045Z,19.22
2022-09-23T13:41:28.722Z,18.91
2022-09-23T13:44:00.713Z,19.77
2022-09-23T13:46:42.965Z,18.97
2022-09-23T13:49:24.850Z,20.05
2022-09-23T13:51:56.303Z,20.25
2022-09-23T13:55:51.655Z,20.00
2022-09-23T13:59:11.723Z,19.03
2022-09-23T14:06:08.907Z,18.28
2022-09-23T14:08:43.764Z,17.55
2022-09-23T14:11:18.584Z,18.04
2022-09-23T14:14:36.598Z,17.51
2022-09-23T14:18:34.208Z,17.27
2022-09-23T14:25:50.859Z,16.90
2022-09-23T14:29:05.286Z,16.98
2022-09-23T14:35:22.189Z,17.25
2022-09-23T14:38:09.097Z,17.15
2022-09-23T14:40:41.478Z,17.33
2022-09-23T14:43:19.098Z,17.38
2022-09-23T14:45:52.870Z,18.10
2022-09-23T14:48:27.284Z,18.41
2022-09-23T14:51:04.934Z,19.00
2022-09-23T14:53:41.944Z,18.67
2022-09-23T14:56:25.191Z,19.21
2022-09-23T14:58:58.253Z,19.06
2022-09-23T15:01:42.788Z,19.66
2022-09-23T15:04:19.970Z,19.61
2022-09-23T15:06:57.418Z,19.91
2022-09-23T15:09:33.067Z,20.16
2022-09-23T15:12:14.783Z,20.50
2022-09-23T15:14:49.311Z,20.71
2022-09-23T15:17:30.369Z,20.68
2022-09-23T15:20:05.210Z,21.24
2022-09-23T15:22:48.548Z,21.07
2022-09-23T15:25:22.591Z,21.42
2022-09-23T15:28:05.857Z,21.97
2022-09-23T15:30:39.131Z,21.98
2022-09-23T15:33:09.651Z,22.19
2022-09-23T15:40:12.114Z,22.42
2022-09-23T15:42:52.560Z,22.72
2022-09-23T15:45:24.310Z,22.83
2022-09-23T15:47:55.809Z,22.86
2022-09-23T15:50:25.563Z,22.67
2022-09-23T15:52:55.874Z,22.68
2022-09-23T15:55:25.825Z,22.23
2022-09-23T15:57:58.301Z,23.24
2022-09-23T16:00:28.973Z,23.83
2022-09-23T16:02:59.276Z,23.71
2022-09-23T16:05:34.851Z,23.82
2022-09-23T16:08:08.894Z,23.68
2022-09-23T16:10:40.411Z,24.64
2022-09-23T16:13:14.872Z,24.13
2022-09-23T16:15:45.647Z,23.93
2022-09-23T16:18:16.149Z,24.15
2022-09-23T16:20:49.462Z,24.76
2022-09-23T16:23:34.704Z,25.38
2022-09-23T16:33:05.513Z,26.87
2022-09-23T16:35:36.344Z,26.01
2022-09-23T16:38:06.801Z,24.70
2022-09-23T16:40:53.461Z,25.96
2022-09-23T16:44:21.840Z,26.44
2022-09-23T16:47:11.955Z,25.66
2022-09-23T16:49:44.777Z,26.41
2022-09-23T16:53:09.427Z,26.68
2022-09-23T16:55:48.099Z,26.99
2022-09-23T17:02:06.817Z,27.17
2022-09-23T17:04:44.401Z,26.94
2022-09-23T17:12:07.383Z,27.23
2022-09-23T17:14:50.284Z,27.67
2022-09-23T17:17:22.994Z,28.38
2022-09-23T17:19:57.569Z,28.00
2022-09-23T17:22:54.538Z,28.84
2022-09-23T17:26:04.293Z,28.80
2022-09-23T17:32:46.278Z,28.68
2022-09-23T17:38:29.789Z,28.52
2022-09-23T17:41:31.369Z,29.15
2022-09-23T17:55:25.997Z,29.57
2022-09-23T17:57:59.020Z,29.89
2022-09-23T18:01:10.397Z,29.44
2022-09-23T18:03:26.530Z,29.17
2022-09-23T18:03:45.688Z,30.47
2022-09-23T18:06:18.284Z,29.94
2022-09-23T18:11:34.976Z,30.64
2022-09-23T18:14:19.742Z,31.12
2022-09-23T18:16:51.780Z,31.12
2022-09-23T18:19:23.298Z,31.13
2022-09-23T18:21:56.275Z,31.38
2022-09-23T18:24:43.246Z,31.64
2022-09-23T18:27:18.234Z,31.27
2022-09-23T18:29:48.254Z,31.39
2022-09-23T18:32:18.588Z,31.69
2022-09-23T18:34:48.619Z,31.17
2022-09-23T18:37:19.057Z,32.18
2022-09-23T18:39:49.964Z,32.76
2022-09-23T18:46:03.886Z,32.95
2022-09-23T18:56:11.762Z,33.25
2022-09-23T18:58:47.876Z,33.65
2022-09-23T19:01:21.112Z,34.53
2022-09-23T19:04:39.859Z,34.03
2022-09-23T19:07:14.812Z,34.41
2022-09-23T19:09:58.713Z,34.59
2022-09-23T19:12:35.451Z,34.13
2022-09-23T19:15:16.127Z,34.50
2022-09-23T19:22:36.230Z,35.24
2022-09-23T19:25:34.087Z,35.07
2022-09-23T19:28:09.621Z,35.12
2022-09-23T19:30:42.939Z,35.40
2022-09-23T19:33:14.035Z,35.77
2022-09-23T19:36:05.581Z,35.83
2022-09-23T19:38:46.448Z,36.58
2022-09-23T19:41:21.214Z,36.25
2022-09-23T19:43:55.137Z,36.68
2022-09-23T19:46:27.829Z,36.16
2022-09-23T19:53:11.408Z,36.86
2022-09-23T19:55:44.442Z,37.32
2022-09-23T19:58:16.230Z,38.28
2022-09-23T20:00:52.190Z,37.34
2022-09-23T20:03:26.106Z,37.23
2022-09-23T20:06:00.024Z,37.45
2022-09-23T20:08:30.189Z,37.75
2022-09-23T20:11:00.478Z,38.44
2022-09-23T20:13:33.889Z,38.11
2022-09-23T20:16:09.926Z,38.18
2022-09-23T20:18:46.340Z,38.11
2022-09-23T20:22:04.688Z,38.40
2022-09-23T20:27:53.020Z,39.19
2022-09-23T20:36:43.092Z,39.35
2022-09-23T20:38:27.671Z,39.41
2022-09-23T20:40:18.120Z,39.62
2022-09-23T20:41:25.061Z,39.99
2022-09-23T20:44:46.812Z,39.81
2022-09-23T20:47:20.952Z,39.84
2022-09-23T20:49:51.013Z,40.11
2022-09-23T20:52:25.025Z,40.02
2022-09-23T20:55:03.362Z,40.08
2022-09-23T21:01:01.376Z,41.00
2022-09-23T21:03:45.902Z,40.38
2022-09-23T21:06:19.050Z,40.93
2022-09-23T21:08:58.062Z,40.78
2022-09-23T21:11:29.265Z,41.03
2022-09-23T21:14:04.544Z,41.56
2022-09-23T21:16:35.159Z,41.34
2022-09-23T21:19:07.606Z,41.28
2022-09-23T21:21:41.251Z,41.50
2022-09-23T21:25:25.932Z,41.34
2022-09-23T21:31:50.862Z,40.95
2022-09-23T21:34:21.664Z,41.21
2022-09-23T21:36:52.083Z,41.43
2022-09-23T21:39:24.599Z,40.82
2022-09-23T21:41:54.919Z,41.08
2022-09-23T21:44:25.519Z,41.64
2022-09-23T21:46:57.530Z,40.98
2022-09-23T21:49:27.615Z,41.02
2022-09-23T21:52:00.745Z,41.14
2022-09-23T21:54:39.155Z,41.01
2022-09-23T21:57:11.234Z,41.14
2022-09-23T22:00:55.125Z,41.12
2022-09-23T22:03:12.058Z,40.95
2022-09-23T22:05:43.250Z,41.07
2022-09-23T22:08:15.591Z,41.88
2022-09-23T22:10:54.902Z,41.85
2022-09-23T22:13:25.333Z,41.59
2022-09-23T22:15:56.878Z,41.87
2022-09-23T22:18:36.518Z,41.90
2022-09-23T22:21:09.814Z,41.46
2022-09-23T22:23:40.061Z,41.55
2022-09-23T22:26:12.538Z,41.67
2022-09-23T22:28:55.154Z,41.69
2022-09-23T22:31:37.632Z,41.50
2022-09-23T22:34:08.250Z,41.77
2022-09-23T22:36:43.442Z,42.50
2022-09-23T22:39:13.534Z,42.07
2022-09-23T22:41:46.926Z,42.67
2022-09-23T22:44:17.391Z,42.69
2022-09-23T22:46:48.229Z,42.17
2022-09-23T22:49:21.636Z,42.45
2022-09-23T22:51:53.981Z,42.46
2022-09-23T22:54:34.014Z,42.67
2022-09-23T22:57:15.876Z,42.76
2022-09-23T23:03:58.104Z,42.97
2022-09-23T23:07:08.929Z,43.33
2022-09-23T23:09:39.596Z,43.91
2022-09-23T23:12:14.031Z,43.92
2022-09-23T23:14:45.390Z,44.07
2022-09-23T23:17:16.127Z,44.78
2022-09-23T23:19:46.913Z,45.37
2022-09-23T23:22:17.441Z,45.25
2022-09-23T23:24:47.788Z,45.18
2022-09-23T23:27:21.088Z,45.04
2022-09-23T23:29:51.438Z,44.88
2022-09-23T23:32:22.095Z,45.01
2022-09-23T23:34:52.413Z,45.34
2022-09-23T23:37:23.141Z,44.76
2022-09-23T23:39:53.275Z,45.10
2022-09-23T23:42:27.305Z,44.96
2022-09-23T23:44:57.761Z,45.62
2022-09-23T23:47:28.571Z,46.07
2022-09-23T23:49:59.246Z,46.33
2022-09-23T23:52:30.023Z,46.43
2022-09-23T23:55:00.585Z,46.37
2022-09-23T23:57:33.762Z,46.42
